KBJC/BJC METAR and TAF weather

Enter ICAO airport designator
Station Type Date Time Source
KBJC METAR 2020/04/05 19:45 UTC NOAA

KBJC 051945Z 11009KT 30SM BKN110 19/M06 A2977


Station Type Date Time Source
KBJC Decoded METAR 2020/04/05 19:45 UTC NOAA

Broomfield / Jeffco, CO, United States (KBJC) 39-55N 105-07W
Apr 05, 2020 - 03:45 PM EDT / 2020.04.05 1945 UTC
Wind: from the ESE (110 degrees) at 10 MPH (9 KT):0
Visibility: 30 mile(s):0
Sky conditions: mostly cloudy
Temperature: 66 F (19 C)
Dew Point: 21 F (-6 C)
Relative Humidity: 17%
Pressure (altimeter): 29.77 in. Hg (1008 hPa)
ob: KBJC 051945Z 11009KT 30SM BKN110 19/M06 A2977
cycle: 20

Station Type Date Time Source
KBJC TAF 2020/04/05 19:51 UTC NOAA

TAF
AMD KBJC 051849Z 0519/0618 16010KT P6SM SCT090 BKN220
FM052200 28010G18KT P6SM BKN090
FM060500 24010KT P6SM FEW220

Example: see airport list